Time;durP1;ratioP1;P1;durP2;ratioP2;P2;SDS_P1;SDS_P2;PMS_P1;PMS_P2;Temp;Humidity;BMP_temperature;BMP_pressure;BME280_temperature;BME280_humidity;BME280_pressure;Samples;Min_cycle;Max_cycle;Signal;HPM_P1;HPM_P2
2022/02/20 00:00:06;;;;;;;73.90;27.70;;;;;;;0.67;56.60;98397.84;434098;1265;108042;-40
2022/02/20 00:10:34;;;;;;;68.30;27.30;;;;;;;0.66;56.68;98382.24;434223;1264;97894;-41
2022/02/20 00:20:43;;;;;;;64.40;25.30;;;;;;;0.50;56.89;98369.37;434179;1264;111048;-40
2022/02/20 00:30:50;;;;;;;58.20;22.10;;;;;;;0.51;57.43;98375.73;434058;1265;108770;-41
2022/02/20 00:40:58;;;;;;;49.20;18.10;;;;;;;0.66;57.65;98358.07;434174;1263;108802;-41
2022/02/20 00:51:05;;;;;;;33.50;14.30;;;;;;;0.85;57.54;98336.98;434269;1264;97897;-42
2022/02/20 01:01:13;;;;;;;38.60;14.30;;;;;;;0.98;57.84;98328.98;434357;1263;111300;-42
2022/02/20 01:11:21;;;;;;;33.00;12.00;;;;;;;1.06;57.82;98309.05;434280;1264;108644;-41
2022/02/20 01:21:28;;;;;;;37.70;10.90;;;;;;;1.14;57.77;98288.70;434235;1263;108852;-41
2022/02/20 01:31:35;;;;;;;25.90;9.60;;;;;;;1.30;57.89;98277.27;434243;1264;97497;-43
2022/02/20 01:41:43;;;;;;;29.20;10.20;;;;;;;1.42;57.82;98269.85;434176;1264;111070;-41
2022/02/20 01:51:50;;;;;;;26.10;9.20;;;;;;;1.49;57.96;98259.19;434276;1263;108774;-41
2022/02/20 02:01:58;;;;;;;22.80;8.50;;;;;;;1.47;57.80;98241.43;434338;1263;107851;-41
2022/02/20 02:12:03;;;;;;;22.10;8.00;;;;;;;1.41;57.85;98218.56;435100;1254;97484;-43
2022/02/20 02:22:10;;;;;;;20.20;7.70;;;;;;;1.42;58.01;98213.00;434441;1262;97894;-43
2022/02/20 02:32:18;;;;;;;18.90;7.50;;;;;;;1.39;58.09;98184.81;434474;1263;108819;-41
2022/02/20 02:42:25;;;;;;;21.40;7.50;;;;;;;1.34;58.16;98163.91;433954;1265;97389;-40
2022/02/20 02:52:32;;;;;;;21.10;6.00;;;;;;;1.32;58.17;98146.83;434399;1263;111042;-41
2022/02/20 03:02:40;;;;;;;17.30;7.50;;;;;;;1.26;58.34;98133.33;434312;1262;108779;-43
2022/02/20 03:12:47;;;;;;;14.00;5.90;;;;;;;1.25;58.42;98118.14;434244;1263;108795;-41
2022/02/20 03:22:54;;;;;;;14.20;4.90;;;;;;;1.32;58.41;98102.50;434323;1263;97923;-42
2022/02/20 03:33:01;;;;;;;19.30;5.90;;;;;;;1.39;58.44;98091.27;434151;1264;111707;-40
2022/02/20 03:43:09;;;;;;;12.70;4.70;;;;;;;1.53;58.65;98074.30;434236;1264;108885;-42
2022/02/20 03:53:17;;;;;;;17.90;4.50;;;;;;;1.64;58.50;98057.48;434493;1264;108771;-39
2022/02/20 04:03:25;;;;;;;10.90;4.00;;;;;;;1.71;58.43;98037.84;434330;1263;97478;-42
2022/02/20 04:13:32;;;;;;;18.80;5.10;;;;;;;1.78;58.28;98004.61;434462;1263;111203;-40
2022/02/20 04:23:39;;;;;;;15.70;3.90;;;;;;;1.88;58.26;97984.67;434354;1263;109025;-40
2022/02/20 04:33:46;;;;;;;11.80;3.70;;;;;;;1.93;58.06;97960.81;434369;1264;108754;-41
2022/02/20 04:43:53;;;;;;;9.00;3.70;;;;;;;1.94;58.22;97943.29;434578;1264;97943;-42
2022/02/20 04:54:01;;;;;;;11.40;3.60;;;;;;;1.97;57.93;97929.70;434600;1263;111063;-39
2022/02/20 05:04:09;;;;;;;10.40;4.10;;;;;;;1.99;57.70;97909.49;434535;1264;108772;-40
2022/02/20 05:14:17;;;;;;;13.70;3.50;;;;;;;1.98;57.70;97887.63;434500;1264;108820;-40
2022/02/20 05:24:24;;;;;;;13.90;4.40;;;;;;;1.97;57.66;97880.48;434511;1263;97834;-40
2022/02/20 05:34:31;;;;;;;10.50;4.00;;;;;;;1.93;57.44;97850.83;434506;1264;111045;-40
2022/02/20 05:44:39;;;;;;;14.50;4.40;;;;;;;1.94;57.60;97851.11;434503;1263;108751;-41
2022/02/20 05:54:46;;;;;;;7.90;3.10;;;;;;;2.03;57.72;97848.70;434454;1263;108719;-41
2022/02/20 06:04:53;;;;;;;9.80;3.60;;;;;;;2.21;57.66;97841.44;434607;1263;97950;-40
2022/02/20 06:15:01;;;;;;;8.20;3.20;;;;;;;2.32;57.64;97836.72;434513;1264;111065;-40
2022/02/20 06:25:09;;;;;;;13.20;4.70;;;;;;;2.45;57.56;97844.64;434632;1264;108886;-41
2022/02/20 06:35:16;;;;;;;12.10;4.00;;;;;;;2.80;57.62;97846.66;434594;1263;108608;-40
2022/02/20 06:45:23;;;;;;;11.20;3.90;;;;;;;3.30;57.33;97853.31;434640;1264;96639;-41
2022/02/20 06:55:31;;;;;;;12.90;3.50;;;;;;;3.23;57.35;97861.55;434675;1264;111198;-41
2022/02/20 07:05:38;;;;;;;9.00;3.30;;;;;;;3.19;58.15;97872.20;430662;1264;5381788;-40
2022/02/20 07:15:46;;;;;;;14.20;4.30;;;;;;;3.00;60.17;97877.02;434449;1263;97477;-40
2022/02/20 07:25:53;;;;;;;6.80;2.30;;;;;;;2.63;62.06;97876.52;434577;1263;97907;-40
2022/02/20 07:36:01;;;;;;;12.20;4.40;;;;;;;2.52;62.97;97875.27;434473;1264;108752;-38
2022/02/20 07:46:08;;;;;;;10.00;4.30;;;;;;;2.45;64.25;97876.59;434590;1264;97897;-41
2022/02/20 07:56:16;;;;;;;8.10;3.20;;;;;;;2.56;65.00;97871.39;434566;1263;97787;-41
2022/02/20 08:06:22;;;;;;;10.10;4.40;;;;;;;2.69;65.55;97870.88;434587;1263;110644;-40
2022/02/20 08:16:30;;;;;;;11.00;4.70;;;;;;;2.67;66.72;97873.40;434604;1264;108866;-41
2022/02/20 08:26:37;;;;;;;11.80;5.80;;;;;;;2.64;67.81;97869.34;434663;1264;97985;-40
2022/02/20 08:36:42;;;;;;;12.10;5.50;;;;;;;2.68;68.54;97870.39;434765;1264;111229;-42
2022/02/20 08:56:56;;;;;;;8.00;3.20;;;;;;;2.88;69.66;97869.13;434557;1264;97907;-42
2022/02/20 09:07:03;;;;;;;8.40;4.30;;;;;;;2.99;71.36;97870.80;434519;1264;111106;-40
2022/02/20 09:17:11;;;;;;;6.10;3.60;;;;;;;3.05;71.65;97863.96;434508;1264;108867;-42
2022/02/20 09:27:19;;;;;;;8.50;5.00;;;;;;;3.36;72.55;97866.30;434616;1264;97526;-40
2022/02/20 09:37:27;;;;;;;10.00;6.00;;;;;;;3.32;73.23;97876.80;434529;1264;111466;-40
2022/02/20 09:57:41;;;;;;;5.70;3.60;;;;;;;3.27;73.43;97891.02;434591;1264;108024;-44
2022/02/20 10:07:50;;;;;;;4.80;3.80;;;;;;;3.41;74.20;97902.80;434548;1264;97525;-39
2022/02/20 10:28:06;;;;;;;9.70;5.40;;;;;;;3.58;74.52;97906.34;434737;1263;97999;-42
2022/02/20 10:38:13;;;;;;;7.60;4.40;;;;;;;3.81;74.61;97904.13;434591;1263;96615;-40
2022/02/20 10:48:21;;;;;;;6.10;4.20;;;;;;;3.97;74.52;97909.20;434150;1265;108823;-42
2022/02/20 10:58:30;;;;;;;8.70;5.50;;;;;;;4.34;74.62;97900.96;434478;1264;97967;-40
2022/02/20 11:08:37;;;;;;;14.90;8.00;;;;;;;4.48;74.93;97901.17;434463;1264;111123;-40
2022/02/20 11:18:45;;;;;;;15.90;7.50;;;;;;;4.42;74.74;97905.11;434448;1264;107460;-40
2022/02/20 11:39:07;;;;;;;13.10;8.10;;;;;;;4.35;75.30;97917.19;434485;1264;97546;-41
2022/02/20 11:49:30;;;;;;;6.30;4.80;;;;;;;4.49;75.65;97921.77;434289;1264;109309;-40
2022/02/20 11:59:37;;;;;;;11.60;6.20;;;;;;;4.74;75.54;97914.88;434609;1263;98054;-40
2022/02/20 12:09:44;;;;;;;36.20;17.80;;;;;;;4.86;75.50;97919.37;434769;1263;111070;-41
2022/02/20 12:19:51;;;;;;;16.90;9.30;;;;;;;5.05;75.74;97916.52;434708;1264;108397;-46
2022/02/20 12:29:58;;;;;;;10.10;6.60;;;;;;;5.37;76.14;97913.83;434810;1264;97910;-40
2022/02/20 12:40:05;;;;;;;13.40;8.00;;;;;;;5.72;76.69;97912.52;434541;1263;111404;-44
2022/02/20 12:50:13;;;;;;;9.90;5.70;;;;;;;5.78;76.54;97911.67;434606;1264;108675;-40
2022/02/20 13:00:21;;;;;;;20.40;7.90;;;;;;;5.85;76.20;97908.03;434663;1264;97949;-41
2022/02/20 13:10:30;;;;;;;11.20;5.30;;;;;;;6.01;75.76;97908.38;434358;1263;111062;-40
2022/02/20 13:20:44;;;;;;;38.80;18.40;;;;;;;6.49;75.33;97905.23;434128;1264;108700;-40
2022/02/20 13:30:52;;;;;;;25.70;12.60;;;;;;;6.75;74.22;97900.98;434328;1265;96695;-40
2022/02/20 13:41:01;;;;;;;18.80;9.00;;;;;;;6.67;72.99;97893.02;434240;1263;108674;-41
2022/02/20 13:51:24;;;;;;;18.80;10.40;;;;;;;6.72;72.36;97884.77;434232;1265;97477;-39
2022/02/20 14:01:40;;;;;;;12.90;8.90;;;;;;;6.84;72.12;97880.77;434424;1264;109576;-42
2022/02/20 14:11:47;;;;;;;11.20;6.70;;;;;;;6.80;71.46;97876.69;434211;1264;108843;-40
2022/02/20 14:42:08;;;;;;;14.60;4.90;;;;;;;6.88;70.77;97850.42;434260;1263;111321;-40
2022/02/20 14:52:16;;;;;;;12.00;6.00;;;;;;;6.86;70.30;97845.09;434217;1264;108878;-41
2022/02/20 15:02:23;;;;;;;11.30;5.90;;;;;;;6.87;70.15;97843.13;434103;1265;97914;-42
2022/02/20 15:12:30;;;;;;;19.20;5.30;;;;;;;6.75;69.39;97839.50;434405;1265;97900;-42
2022/02/20 15:22:37;;;;;;;47.00;14.30;;;;;;;6.59;69.13;97822.27;434199;1263;111148;-41
2022/02/20 15:32:46;;;;;;;14.20;5.90;;;;;;;6.48;69.01;97807.83;434194;1264;108928;-41
2022/02/20 15:42:54;;;;;;;24.90;9.80;;;;;;;6.39;68.72;97784.58;434145;1265;108920;-39
2022/02/20 15:53:01;;;;;;;17.70;8.30;;;;;;;6.18;68.66;97768.49;434227;1264;98283;-42
2022/02/20 16:03:08;;;;;;;20.00;7.80;;;;;;;5.96;68.52;97757.02;434193;1264;110433;-39
2022/02/20 16:13:15;;;;;;;13.20;6.50;;;;;;;5.86;68.43;97741.36;434325;1264;108856;-43
2022/02/20 16:23:22;;;;;;;26.40;12.00;;;;;;;5.88;68.40;97729.27;434316;1264;97897;-42
2022/02/20 16:33:28;;;;;;;46.70;17.90;;;;;;;5.81;68.38;97721.30;434309;1264;111001;-40
2022/02/20 16:43:36;;;;;;;32.20;12.30;;;;;;;5.74;68.41;97721.35;434206;1264;108973;-41
2022/02/20 16:53:44;;;;;;;31.60;12.40;;;;;;;5.73;68.30;97722.34;434416;1263;108223;-40
2022/02/20 17:03:51;;;;;;;12.90;6.40;;;;;;;5.77;68.36;97725.47;434287;1264;96616;-40
2022/02/20 17:14:18;;;;;;;8.60;5.00;;;;;;;5.73;68.89;97737.58;434276;1264;111064;-40
2022/02/20 17:24:25;;;;;;;13.10;6.00;;;;;;;5.47;69.68;97728.88;434321;1264;109039;-43
2022/02/20 17:34:32;;;;;;;11.80;5.10;;;;;;;5.21;70.30;97717.70;434229;1264;96590;-42
2022/02/20 17:44:39;;;;;;;11.30;4.90;;;;;;;5.10;70.55;97704.27;434177;1265;111197;-41
2022/02/20 17:54:47;;;;;;;9.90;4.20;;;;;;;5.09;71.00;97685.05;434032;1265;108939;-43
2022/02/20 18:04:54;;;;;;;21.00;8.90;;;;;;;5.08;71.42;97681.27;434134;1265;98060;-41
2022/02/20 18:15:01;;;;;;;21.30;8.60;;;;;;;5.02;71.75;97675.95;434182;1264;108207;-41
2022/02/20 18:25:08;;;;;;;12.70;5.20;;;;;;;5.00;72.15;97677.57;434209;1264;97525;-42
2022/02/20 18:35:16;;;;;;;13.20;5.30;;;;;;;5.02;72.89;97676.67;434377;1264;111350;-41
2022/02/20 18:45:23;;;;;;;10.70;4.40;;;;;;;5.03;73.70;97669.00;434265;1264;107032;-44
2022/02/20 19:05:37;;;;;;;9.40;4.80;;;;;;;4.85;75.04;97651.11;430086;1264;5622180;-43
2022/02/20 19:15:43;;;;;;;16.50;5.90;;;;;;;4.84;75.31;97645.80;434163;1264;97963;-41
2022/02/20 19:25:50;;;;;;;11.10;4.30;;;;;;;4.87;75.88;97620.95;434140;1263;111147;-41
2022/02/20 19:35:57;;;;;;;6.70;3.00;;;;;;;4.92;76.17;97599.33;434219;1264;108823;-42
2022/02/20 19:46:05;;;;;;;4.10;2.30;;;;;;;4.97;76.81;97581.96;434204;1263;97922;-42
2022/02/20 19:56:12;;;;;;;10.90;2.90;;;;;;;5.01;77.31;97574.06;434281;1263;108811;-42
2022/02/20 20:06:19;;;;;;;6.10;3.30;;;;;;;5.06;77.63;97559.88;434178;1264;96664;-41
2022/02/20 20:16:29;;;;;;;13.90;4.70;;;;;;;5.09;78.04;97533.81;434245;1263;111597;-42
2022/02/20 20:26:37;;;;;;;8.40;4.70;;;;;;;5.04;78.16;97535.61;434273;1263;108783;-40
2022/02/20 20:36:44;;;;;;;8.40;4.30;;;;;;;5.09;78.16;97518.33;434297;1263;97929;-41
2022/02/20 20:46:50;;;;;;;8.00;3.40;;;;;;;5.17;78.55;97506.04;434336;1263;108165;-41
2022/02/20 20:56:57;;;;;;;5.60;2.90;;;;;;;5.25;78.70;97495.38;434170;1263;97948;-40
2022/02/20 21:07:05;;;;;;;15.10;7.20;;;;;;;5.31;78.90;97481.09;434161;1263;111133;-41
2022/02/20 21:17:12;;;;;;;13.00;6.00;;;;;;;5.26;78.87;97464.77;434271;1264;109283;-41
2022/02/20 21:27:20;;;;;;;13.10;5.30;;;;;;;5.27;78.82;97451.38;434216;1264;97914;-40
2022/02/20 21:47:33;;;;;;;10.40;4.80;;;;;;;5.40;78.93;97418.28;434158;1264;98012;-41
2022/02/20 21:57:41;;;;;;;15.30;6.90;;;;;;;5.37;78.89;97396.27;434400;1262;111068;-42
2022/02/20 22:07:48;;;;;;;11.30;4.60;;;;;;;5.30;78.85;97371.67;434349;1263;108644;-41
2022/02/20 22:17:56;;;;;;;10.10;4.20;;;;;;;5.34;78.80;97351.36;434459;1264;97928;-44
2022/02/20 22:28:03;;;;;;;7.50;4.20;;;;;;;5.40;78.97;97330.52;433910;1264;109498;-40
2022/02/20 22:38:10;;;;;;;15.70;6.40;;;;;;;5.38;78.78;97317.29;434152;1264;109085;-42
2022/02/20 22:48:17;;;;;;;16.10;6.90;;;;;;;5.30;78.73;97304.52;434419;1263;97906;-41
2022/02/20 22:58:23;;;;;;;7.90;4.00;;;;;;;5.31;78.52;97286.10;434052;1264;110940;-39
2022/02/20 23:08:30;;;;;;;5.60;2.60;;;;;;;5.38;78.52;97260.34;434396;1264;108773;-41
2022/02/20 23:18:37;;;;;;;8.70;3.80;;;;;;;5.47;78.49;97244.46;434195;1263;97900;-44
2022/02/20 23:28:44;;;;;;;4.50;2.80;;;;;;;5.54;78.46;97238.88;434062;1263;108854;-41
2022/02/20 23:38:52;;;;;;;3.60;1.90;;;;;;;5.64;78.27;97224.80;434178;1264;100209;-39
2022/02/20 23:48:58;;;;;;;3.30;1.90;;;;;;;5.82;78.16;97204.64;434238;1264;111031;-41
2022/02/20 23:59:04;;;;;;;4.00;2.10;;;;;;;5.94;78.08;97180.30;434140;1264;108718;-41
